Time;durP1;ratioP1;P1;durP2;ratioP2;P2;SDS_P1;SDS_P2;PMS_P1;PMS_P2;Temp;Humidity;BMP_temperature;BMP_pressure;BME280_temperature;BME280_humidity;BME280_pressure;Samples;Min_cycle;Max_cycle;Signal;HPM_P1;HPM_P2
2023/07/28 00:01:57;;;;;;;0.60;0.60;;;18.60;99.90;;;;;;5114342;28;20043;-63
2023/07/28 00:04:22;;;;;;;0.35;0.35;;;18.30;99.90;;;;;;5114329;28;20059;-62
2023/07/28 00:06:48;;;;;;;1.27;1.17;;;17.50;99.90;;;;;;5114191;28;20048;-62
2023/07/28 00:09:14;;;;;;;0.85;0.63;;;18.10;99.90;;;;;;5113890;28;20051;-61
2023/07/28 00:11:40;;;;;;;2.85;2.60;;;17.90;99.90;;;;;;5113890;28;20048;-62
2023/07/28 00:14:05;;;;;;;0.50;0.50;;;18.40;99.90;;;;;;5113789;28;20055;-63
2023/07/28 00:16:31;;;;;;;1.50;1.40;;;18.00;99.90;;;;;;5113818;28;20134;-63
2023/07/28 00:18:57;;;;;;;0.65;0.65;;;18.30;99.90;;;;;;5113899;28;20674;-64
2023/07/28 00:21:22;;;;;;;0.50;0.47;;;17.80;99.90;;;;;;5113794;27;20040;-65
2023/07/28 00:23:48;;;;;;;2.47;1.40;;;18.00;99.90;;;;;;5113712;28;20571;-63
2023/07/28 00:26:14;;;;;;;0.30;0.30;;;17.50;99.90;;;;;;5112537;28;20047;-62
2023/07/28 00:28:39;;;;;;;1.55;1.48;;;18.00;99.90;;;;;;5113452;28;20094;-62
2023/07/28 00:31:05;;;;;;;0.65;0.60;;;18.10;99.90;;;;;;5113714;28;20047;-62
2023/07/28 00:33:31;;;;;;;1.80;0.98;;;18.40;99.90;;;;;;5113593;28;20046;-64
2023/07/28 00:35:56;;;;;;;0.80;0.80;;;17.40;99.90;;;;;;5113517;28;20511;-62
2023/07/28 00:38:22;;;;;;;0.90;0.82;;;18.10;99.90;;;;;;5113403;28;20055;-63
2023/07/28 00:40:48;;;;;;;1.17;1.08;;;18.10;99.90;;;;;;5113369;27;20761;-62
2023/07/28 00:43:13;;;;;;;3.20;1.55;;;18.10;99.90;;;;;;5113258;28;20039;-64
2023/07/28 00:45:40;;;;;;;0.38;0.38;;;18.60;99.90;;;;;;5113107;28;20054;-63
2023/07/28 00:48:12;;;;;;;0.98;0.80;;;17.20;99.90;;;;;;5112300;28;20511;-62
2023/07/28 00:50:40;;;;;;;0.35;0.35;;;18.10;99.90;;;;;;5113326;28;20083;-62
2023/07/28 00:53:06;;;;;;;0.52;0.50;;;18.40;99.90;;;;;;5112075;28;20051;-62
2023/07/28 00:55:32;;;;;;;2.17;0.70;;;18.50;99.90;;;;;;5113042;28;20044;-62
2023/07/28 00:57:58;;;;;;;0.20;0.20;;;18.30;99.90;;;;;;5112846;28;20395;-62
2023/07/28 01:00:24;;;;;;;0.13;0.13;;;17.20;99.90;;;;;;5113152;27;20048;-62
2023/07/28 01:02:50;;;;;;;0.40;0.40;;;17.40;99.90;;;;;;5112982;28;20478;-63
2023/07/28 01:05:16;;;;;;;0.65;0.65;;;17.50;99.90;;;;;;5112996;28;20051;-63
2023/07/28 01:07:59;;;;;;;0.30;0.30;;;18.30;99.90;;;;;;5112865;28;20108;-62
2023/07/28 01:10:32;;;;;;;2.88;0.73;;;18.50;99.90;;;;;;5111617;28;20047;-63
2023/07/28 01:12:58;;;;;;;0.30;0.30;;;18.30;99.90;;;;;;5113095;28;20402;-65
2023/07/28 01:15:24;;;;;;;1.38;0.57;;;18.20;99.90;;;;;;5113002;28;20480;-62
2023/07/28 01:17:51;;;;;;;0.70;0.45;;;18.30;99.90;;;;;;5113040;28;20053;-63
2023/07/28 01:20:17;;;;;;;3.08;0.95;;;18.30;99.90;;;;;;5111450;28;20065;-62
2023/07/28 01:23:13;;;;;;;0.75;0.38;;;17.50;99.90;;;;;;5112504;28;20059;-65
2023/07/28 01:26:06;;;;;;;0.63;0.60;;;17.50;99.90;;;;;;5111545;28;20089;-62
2023/07/28 01:28:35;;;;;;;1.35;1.25;;;18.40;99.90;;;;;;5111804;28;20552;-63
2023/07/28 01:31:03;;;;;;;0.45;0.45;;;18.10;99.90;;;;;;5111361;28;20394;-62
2023/07/28 01:33:29;;;;;;;0.20;0.20;;;18.60;99.90;;;;;;5112248;28;20074;-63
2023/07/28 01:35:55;;;;;;;1.05;0.60;;;17.60;99.90;;;;;;5112479;28;20460;-62
2023/07/28 01:38:21;;;;;;;12.27;0.50;;;17.90;99.90;;;;;;5112378;28;20044;-62
2023/07/28 01:40:46;;;;;;;1.10;0.65;;;17.50;99.90;;;;;;5111023;28;20113;-63
2023/07/28 01:43:12;;;;;;;3.72;0.93;;;17.90;99.90;;;;;;5112136;28;20147;-64
2023/07/28 01:45:38;;;;;;;0.40;0.32;;;17.30;99.90;;;;;;5112165;28;20043;-63
2023/07/28 01:48:04;;;;;;;5.40;1.25;;;18.30;99.90;;;;;;5112024;28;20508;-64
2023/07/28 01:50:30;;;;;;;0.55;0.55;;;17.10;99.90;;;;;;5112278;27;20373;-62
2023/07/28 01:52:56;;;;;;;0.10;0.10;;;17.10;99.90;;;;;;5112172;28;20076;-63
2023/07/28 01:55:21;;;;;;;0.28;0.28;;;17.70;99.90;;;;;;5112124;28;20048;-63
2023/07/28 01:58:05;;;;;;;1.95;1.25;;;18.80;99.90;;;;;;5112228;28;20483;-62
2023/07/28 02:00:31;;;;;;;0.60;0.60;;;17.60;99.90;;;;;;5112266;28;20395;-62
2023/07/28 02:02:58;;;;;;;0.43;0.43;;;17.30;99.90;;;;;;5111636;28;20040;-62
2023/07/28 02:05:24;;;;;;;0.32;0.32;;;18.00;99.90;;;;;;5112127;28;20062;-63
2023/07/28 02:07:50;;;;;;;0.50;0.50;;;18.80;99.90;;;;;;5112046;28;20055;-62
2023/07/28 02:10:16;;;;;;;0.95;0.68;;;17.40;99.90;;;;;;5111859;28;20047;-63
2023/07/28 02:12:42;;;;;;;0.50;0.50;;;17.40;99.90;;;;;;5111822;28;20089;-63
2023/07/28 02:15:08;;;;;;;1.50;0.98;;;18.50;99.90;;;;;;5111719;28;20043;-63
2023/07/28 02:17:34;;;;;;;1.15;0.77;;;18.20;99.90;;;;;;5112015;28;20506;-62
2023/07/28 02:20:03;;;;;;;0.20;0.10;;;18.40;99.90;;;;;;5111847;28;20506;-63
2023/07/28 02:22:29;;;;;;;0.77;0.70;;;17.20;99.90;;;;;;5111632;28;20048;-63
2023/07/28 02:24:54;;;;;;;0.55;0.55;;;17.10;99.90;;;;;;5111735;28;20052;-64
2023/07/28 02:27:20;;;;;;;0.52;0.52;;;18.30;99.90;;;;;;5110350;28;20482;-64
2023/07/28 02:29:46;;;;;;;0.90;0.57;;;17.20;99.90;;;;;;5111643;28;20131;-63
2023/07/28 02:32:11;;;;;;;0.55;0.55;;;17.60;99.90;;;;;;5111787;28;20077;-62
2023/07/28 02:34:37;;;;;;;1.58;1.30;;;18.70;99.90;;;;;;5110483;28;20051;-62
2023/07/28 02:37:03;;;;;;;3.33;1.98;;;17.40;99.90;;;;;;5111695;28;20048;-62
2023/07/28 02:39:29;;;;;;;0.52;0.52;;;18.40;99.90;;;;;;5112140;28;20051;-63
2023/07/28 02:41:54;;;;;;;0.30;0.28;;;17.40;99.90;;;;;;5115702;27;20105;-62
2023/07/28 02:44:20;;;;;;;0.25;0.25;;;17.20;99.90;;;;;;5115562;28;20544;-62
2023/07/28 02:46:46;;;;;;;0.55;0.55;;;17.20;99.90;;;;;;5115782;28;20058;-65
2023/07/28 02:49:11;;;;;;;0.32;0.32;;;18.40;99.90;;;;;;5115734;28;20043;-63
2023/07/28 02:51:37;;;;;;;0.70;0.65;;;17.90;99.90;;;;;;5114819;28;20492;-63
2023/07/28 02:54:03;;;;;;;0.50;0.50;;;16.90;99.90;;;;;;5115520;28;20059;-62
2023/07/28 02:56:29;;;;;;;0.82;0.82;;;17.70;99.90;;;;;;5115627;27;20134;-63
2023/07/28 02:58:55;;;;;;;1.00;1.00;;;17.30;99.90;;;;;;5114354;28;20135;-62
2023/07/28 03:01:20;;;;;;;0.20;0.20;;;18.50;99.90;;;;;;5115230;28;20138;-62
2023/07/28 03:03:47;;;;;;;1.13;0.90;;;17.70;99.90;;;;;;5113699;28;20097;-65
2023/07/28 03:06:13;;;;;;;0.25;0.25;;;17.50;99.90;;;;;;5115334;28;20505;-63
2023/07/28 03:08:38;;;;;;;0.63;0.63;;;17.10;99.90;;;;;;5115188;28;20060;-63
2023/07/28 03:11:04;;;;;;;0.52;0.52;;;17.50;99.90;;;;;;5113706;28;20048;-62
2023/07/28 03:13:30;;;;;;;0.57;0.57;;;18.10;99.90;;;;;;5114980;28;20040;-63
2023/07/28 03:15:55;;;;;;;1.00;0.90;;;17.40;99.90;;;;;;5115219;27;20052;-62
2023/07/28 03:18:21;;;;;;;1.45;0.73;;;18.40;99.90;;;;;;5114945;27;20114;-63
2023/07/28 03:20:47;;;;;;;0.10;0.10;;;18.30;99.90;;;;;;5115077;28;20062;-64
2023/07/28 03:23:13;;;;;;;0.95;0.38;;;18.10;99.90;;;;;;5114836;28;20043;-63
2023/07/28 03:25:39;;;;;;;0.57;0.57;;;18.20;99.90;;;;;;5114832;28;20055;-63
2023/07/28 03:28:04;;;;;;;0.88;0.57;;;17.30;99.90;;;;;;5114809;28;20075;-63
2023/07/28 03:30:30;;;;;;;0.52;0.40;;;18.50;99.90;;;;;;5114942;28;20125;-62
2023/07/28 03:32:56;;;;;;;0.70;0.40;;;18.00;99.90;;;;;;5114862;27;20075;-62
2023/07/28 03:35:22;;;;;;;0.93;0.43;;;18.30;99.90;;;;;;5114684;28;20502;-63
2023/07/28 03:37:47;;;;;;;3.35;1.25;;;17.30;99.90;;;;;;5114677;28;20052;-63
2023/07/28 03:40:13;;;;;;;1.25;0.70;;;17.80;99.90;;;;;;5114529;28;20056;-63
2023/07/28 03:42:39;;;;;;;0.95;0.85;;;17.80;99.90;;;;;;5114382;28;20051;-63
2023/07/28 03:45:05;;;;;;;0.22;0.22;;;17.80;99.90;;;;;;5113054;28;20051;-63
2023/07/28 03:47:31;;;;;;;0.70;0.68;;;17.20;99.90;;;;;;5114524;28;20131;-62
2023/07/28 03:49:56;;;;;;;0.52;0.52;;;17.00;99.90;;;;;;5114495;28;20115;-62
2023/07/28 03:52:22;;;;;;;0.40;0.40;;;18.30;99.90;;;;;;5113856;28;20078;-62
2023/07/28 03:54:48;;;;;;;0.52;0.52;;;18.40;99.90;;;;;;5114647;27;20154;-62
2023/07/28 03:57:13;;;;;;;1.38;1.27;;;17.30;99.90;;;;;;5114276;28;20043;-63
2023/07/28 03:59:39;;;;;;;0.50;0.50;;;18.60;99.90;;;;;;5114099;28;20043;-63
2023/07/28 04:02:05;;;;;;;0.43;0.40;;;17.30;99.90;;;;;;5114321;28;20048;-65
2023/07/28 04:04:30;;;;;;;2.10;1.35;;;17.30;99.90;;;;;;5112736;28;20087;-63
2023/07/28 04:06:56;;;;;;;2.08;0.50;;;17.30;99.90;;;;;;5114106;28;20043;-63
2023/07/28 04:09:22;;;;;;;0.88;0.75;;;18.70;99.90;;;;;;5113991;28;20075;-62
2023/07/28 04:11:47;;;;;;;0.75;0.60;;;18.10;99.90;;;;;;5113904;28;20403;-62
2023/07/28 04:14:14;;;;;;;0.55;0.55;;;17.60;99.90;;;;;;5114100;28;20044;-62
2023/07/28 04:16:40;;;;;;;0.45;0.45;;;17.20;99.90;;;;;;5114009;28;20537;-65
2023/07/28 04:19:05;;;;;;;0.20;0.20;;;17.10;99.90;;;;;;5113935;28;20051;-62
2023/07/28 04:21:31;;;;;;;0.35;0.22;;;17.80;99.90;;;;;;5113820;28;20062;-62
2023/07/28 04:23:57;;;;;;;0.98;0.73;;;17.30;99.90;;;;;;5113653;28;20047;-63
2023/07/28 04:26:24;;;;;;;1.13;1.02;;;16.90;99.90;;;;;;5113616;28;20050;-62
2023/07/28 04:28:50;;;;;;;3.88;0.88;;;18.40;99.90;;;;;;5113564;27;20088;-63
2023/07/28 04:31:16;;;;;;;0.50;0.50;;;17.90;99.90;;;;;;5113650;28;20044;-62
2023/07/28 04:33:42;;;;;;;0.60;0.60;;;17.80;99.90;;;;;;5113612;27;20048;-63
2023/07/28 04:36:08;;;;;;;0.73;0.73;;;17.30;99.90;;;;;;5113542;28;20050;-61
2023/07/28 04:38:34;;;;;;;0.30;0.30;;;18.70;99.90;;;;;;5113448;28;20043;-62
2023/07/28 04:41:00;;;;;;;1.65;1.00;;;18.00;99.90;;;;;;5113329;28;20104;-66
2023/07/28 04:43:26;;;;;;;0.60;0.60;;;17.30;99.90;;;;;;5113223;28;20122;-62
2023/07/28 04:45:51;;;;;;;1.17;1.08;;;17.30;99.90;;;;;;5113559;28;20040;-62
2023/07/28 04:48:17;;;;;;;0.50;0.38;;;18.00;99.90;;;;;;5113675;28;20091;-62
2023/07/28 04:50:44;;;;;;;2.17;0.30;;;18.50;99.90;;;;;;5113610;28;20070;-63
2023/07/28 04:53:10;;;;;;;0.73;0.73;;;18.20;99.90;;;;;;5113222;28;20468;-65
2023/07/28 04:55:36;;;;;;;3.03;0.68;;;18.50;99.90;;;;;;5113120;28;20135;-63
2023/07/28 04:58:02;;;;;;;1.02;1.02;;;17.90;99.90;;;;;;5111921;28;20059;-62
2023/07/28 05:00:28;;;;;;;0.60;0.60;;;17.50;99.90;;;;;;5113137;28;20142;-62
2023/07/28 05:02:54;;;;;;;1.42;0.98;;;17.50;99.90;;;;;;5112179;28;20487;-62
2023/07/28 05:05:19;;;;;;;0.30;0.30;;;18.60;99.90;;;;;;5112441;28;20056;-62
2023/07/28 05:07:45;;;;;;;0.50;0.50;;;17.90;99.90;;;;;;5112852;28;20055;-65
2023/07/28 05:10:11;;;;;;;0.50;0.50;;;17.20;99.90;;;;;;5112715;28;20135;-62
2023/07/28 05:12:36;;;;;;;1.77;0.38;;;17.70;99.90;;;;;;5112641;28;20112;-62
2023/07/28 05:15:03;;;;;;;0.95;0.68;;;17.50;99.90;;;;;;5111567;28;20126;-62
2023/07/28 05:17:28;;;;;;;1.02;1.02;;;18.30;99.90;;;;;;5112758;28;20471;-62
2023/07/28 05:19:54;;;;;;;0.22;0.22;;;17.40;99.90;;;;;;5112631;28;20086;-64
2023/07/28 05:22:20;;;;;;;0.43;0.43;;;18.00;99.90;;;;;;5112572;28;20109;-62
2023/07/28 05:24:45;;;;;;;1.55;1.45;;;18.10;99.90;;;;;;5112407;28;20044;-64
2023/07/28 05:27:12;;;;;;;0.32;0.32;;;18.20;99.90;;;;;;5112322;28;20100;-63
2023/07/28 05:29:37;;;;;;;0.40;0.40;;;18.40;99.90;;;;;;5112499;28;20562;-62
2023/07/28 05:32:03;;;;;;;0.50;0.50;;;18.10;99.90;;;;;;5112455;28;20134;-61
2023/07/28 05:34:29;;;;;;;1.92;1.05;;;18.70;99.90;;;;;;5112363;28;20042;-61
2023/07/28 05:36:55;;;;;;;0.75;0.75;;;18.00;99.90;;;;;;5112251;28;20135;-64
2023/07/28 05:39:21;;;;;;;0.80;0.80;;;17.70;99.90;;;;;;5112258;28;20472;-62
2023/07/28 05:41:47;;;;;;;0.98;0.85;;;17.90;99.90;;;;;;5111044;28;20075;-64
2023/07/28 05:44:13;;;;;;;0.70;0.70;;;18.40;99.90;;;;;;5112290;28;20043;-62
2023/07/28 05:46:38;;;;;;;0.20;0.20;;;18.00;99.90;;;;;;5112271;28;20479;-62
2023/07/28 05:49:04;;;;;;;0.43;0.43;;;18.00;99.90;;;;;;5112415;28;20047;-61
2023/07/28 05:51:30;;;;;;;0.38;0.35;;;18.70;99.90;;;;;;5112522;28;20050;-62
2023/07/28 05:53:56;;;;;;;0.85;0.63;;;18.00;99.90;;;;;;5112087;28;20055;-63
2023/07/28 05:56:22;;;;;;;9.30;0.70;;;19.10;99.90;;;;;;5111962;28;20075;-62
2023/07/28 05:58:49;;;;;;;0.80;0.50;;;18.60;99.90;;;;;;5112115;28;20104;-62
2023/07/28 06:01:15;;;;;;;0.30;0.28;;;17.90;99.90;;;;;;5112026;28;20411;-64
2023/07/28 06:03:40;;;;;;;0.47;0.40;;;17.90;99.90;;;;;;5110514;28;20399;-62
2023/07/28 06:06:07;;;;;;;0.38;0.38;;;18.00;99.90;;;;;;5110709;28;20063;-62
2023/07/28 06:08:33;;;;;;;0.95;0.82;;;18.10;99.90;;;;;;5110563;28;20062;-62
2023/07/28 06:10:59;;;;;;;3.42;0.82;;;17.80;99.90;;;;;;5103303;28;20517;-65
2023/07/28 06:13:25;;;;;;;0.75;0.52;;;18.30;99.90;;;;;;5110501;28;20488;-62
2023/07/28 06:15:53;;;;;;;0.98;0.73;;;17.90;99.90;;;;;;5110924;28;20051;-62
2023/07/28 06:18:20;;;;;;;2.63;1.52;;;18.60;99.90;;;;;;5110710;28;20053;-62
2023/07/28 06:20:46;;;;;;;0.68;0.68;;;18.00;99.90;;;;;;5110890;28;20051;-63
2023/07/28 06:23:12;;;;;;;0.35;0.35;;;18.70;99.90;;;;;;5111054;28;20040;-62
2023/07/28 06:25:43;;;;;;;0.82;0.70;;;18.70;99.90;;;;;;5108603;28;20373;-61
2023/07/28 06:28:09;;;;;;;1.00;0.75;;;18.80;99.90;;;;;;5111333;28;20086;-62
2023/07/28 06:30:35;;;;;;;0.47;0.35;;;18.80;99.90;;;;;;5110943;28;20126;-61
2023/07/28 06:33:00;;;;;;;0.95;0.85;;;17.90;99.90;;;;;;5110577;28;20169;-62
2023/07/28 06:35:27;;;;;;;0.50;0.50;;;18.40;99.90;;;;;;5109594;28;20412;-64
2023/07/28 06:37:53;;;;;;;0.40;0.40;;;18.80;99.90;;;;;;5110879;28;20048;-61
2023/07/28 06:40:19;;;;;;;0.63;0.63;;;18.20;99.90;;;;;;5110296;28;20052;-62
2023/07/28 06:42:44;;;;;;;0.57;0.47;;;18.60;99.90;;;;;;5110534;28;20047;-62
2023/07/28 06:45:10;;;;;;;0.47;0.43;;;18.30;99.90;;;;;;5109247;28;20044;-61
2023/07/28 06:47:36;;;;;;;1.92;1.75;;;18.40;99.90;;;;;;5110353;28;20134;-61
2023/07/28 06:50:01;;;;;;;0.60;0.45;;;18.50;99.90;;;;;;5092468;28;20509;-62
2023/07/28 06:52:27;;;;;;;0.45;0.45;;;18.20;99.90;;;;;;5110178;28;20051;-61
2023/07/28 06:54:54;;;;;;;0.68;0.68;;;18.30;99.90;;;;;;5110021;28;20479;-61
2023/07/28 06:57:20;;;;;;;0.38;0.38;;;19.00;99.90;;;;;;5110257;28;20051;-63
2023/07/28 06:59:46;;;;;;;2.35;1.38;;;18.70;99.90;;;;;;5110460;28;20047;-62
2023/07/28 07:02:12;;;;;;;1.05;0.95;;;18.80;99.90;;;;;;5108873;28;20104;-62
2023/07/28 07:04:38;;;;;;;1.00;0.68;;;18.90;99.90;;;;;;5110730;28;20051;-62
2023/07/28 07:07:04;;;;;;;0.75;0.57;;;18.90;99.90;;;;;;5109377;28;20048;-63
2023/07/28 07:09:30;;;;;;;1.35;0.52;;;18.50;99.90;;;;;;5109137;28;20526;-62
2023/07/28 07:11:55;;;;;;;0.30;0.30;;;18.60;99.90;;;;;;5110208;28;20142;-67
2023/07/28 07:14:21;;;;;;;1.10;0.57;;;18.70;99.90;;;;;;5110768;28;20069;-64
2023/07/28 07:16:48;;;;;;;0.38;0.38;;;19.00;99.90;;;;;;5110767;28;20052;-64
2023/07/28 07:19:15;;;;;;;0.70;0.70;;;18.60;99.90;;;;;;5108619;28;20479;-63
2023/07/28 07:21:41;;;;;;;1.30;1.15;;;18.80;99.90;;;;;;5110003;28;20792;-66
2023/07/28 07:24:07;;;;;;;0.73;0.73;;;18.60;99.90;;;;;;5110366;28;20102;-64
2023/07/28 07:26:33;;;;;;;0.25;0.25;;;19.10;99.90;;;;;;5109936;28;20403;-62
2023/07/28 07:28:59;;;;;;;1.05;0.68;;;18.60;99.90;;;;;;5114316;28;20043;-62
2023/07/28 07:31:24;;;;;;;0.60;0.60;;;18.90;99.90;;;;;;5107452;28;20080;-70
2023/07/28 07:33:50;;;;;;;0.60;0.60;;;19.20;99.90;;;;;;5113239;28;20043;-62
2023/07/28 07:36:17;;;;;;;1.05;0.95;;;19.10;99.90;;;;;;5113655;28;20051;-62
2023/07/28 07:38:46;;;;;;;1.45;1.00;;;18.90;99.90;;;;;;5113617;28;20445;-62
2023/07/28 07:41:21;;;;;;;0.52;0.40;;;19.00;99.90;;;;;;5112574;28;20133;-64
2023/07/28 07:43:48;;;;;;;0.68;0.52;;;19.30;99.90;;;;;;5113521;28;20130;-67
2023/07/28 07:46:15;;;;;;;0.80;0.70;;;19.30;99.90;;;;;;5108187;28;20043;-66
2023/07/28 07:48:40;;;;;;;0.45;0.45;;;18.60;99.90;;;;;;5107231;28;20051;-63
2023/07/28 07:51:07;;;;;;;0.50;0.50;;;18.80;99.90;;;;;;5113208;28;20422;-64
2023/07/28 07:53:33;;;;;;;0.60;0.60;;;18.90;99.90;;;;;;5113242;28;20055;-71
2023/07/28 07:55:58;;;;;;;1.10;0.40;;;19.40;99.90;;;;;;5111810;28;20049;-63
2023/07/28 07:58:24;;;;;;;1.95;0.77;;;18.60;99.90;;;;;;5113020;28;20044;-62
2023/07/28 08:00:50;;;;;;;1.88;1.00;;;18.70;99.90;;;;;;5113347;28;20082;-63
2023/07/28 08:03:16;;;;;;;0.30;0.30;;;18.60;99.90;;;;;;5112198;28;20044;-64
2023/07/28 08:05:41;;;;;;;1.95;0.50;;;18.90;99.90;;;;;;5111279;28;20059;-64
2023/07/28 08:08:07;;;;;;;0.57;0.57;;;18.60;99.90;;;;;;5113049;28;20055;-68
2023/07/28 08:10:34;;;;;;;0.35;0.35;;;19.20;99.90;;;;;;5112972;28;20458;-64
2023/07/28 08:12:59;;;;;;;0.13;0.13;;;18.80;99.90;;;;;;5113755;28;20036;-64
2023/07/28 08:15:25;;;;;;;0.30;0.30;;;18.90;99.90;;;;;;5112981;28;20489;-63
2023/07/28 08:17:52;;;;;;;8.88;1.23;;;19.20;99.90;;;;;;5111789;28;20492;-76
2023/07/28 08:20:17;;;;;;;0.38;0.38;;;19.40;99.90;;;;;;5110896;28;20062;-62
2023/07/28 08:22:43;;;;;;;0.20;0.20;;;19.40;99.90;;;;;;5112958;28;20043;-65
2023/07/28 08:25:09;;;;;;;0.38;0.38;;;19.50;99.90;;;;;;5112496;28;20046;-65
2023/07/28 08:27:35;;;;;;;0.25;0.25;;;19.50;99.90;;;;;;5113100;28;20499;-64
2023/07/28 08:30:01;;;;;;;0.22;0.22;;;19.70;99.90;;;;;;5112306;28;20483;-64
2023/07/28 08:32:27;;;;;;;0.43;0.43;;;19.60;99.90;;;;;;5113169;28;20047;-64
2023/07/28 08:34:54;;;;;;;0.20;0.20;;;20.20;99.90;;;;;;5112284;28;20047;-65
2023/07/28 08:37:19;;;;;;;0.20;0.20;;;19.80;99.90;;;;;;5113312;28;20092;-64
2023/07/28 08:39:45;;;;;;;0.52;0.52;;;20.00;99.90;;;;;;5113499;28;20044;-64
2023/07/28 08:42:11;;;;;;;0.75;0.75;;;20.00;99.90;;;;;;5112715;28;20073;-65
2023/07/28 08:44:36;;;;;;;7.97;0.63;;;20.10;99.90;;;;;;5111449;28;20044;-64
2023/07/28 08:47:04;;;;;;;0.20;0.20;;;20.10;99.90;;;;;;5112687;28;20044;-64
2023/07/28 08:49:35;;;;;;;3.20;1.05;;;19.80;99.90;;;;;;5112184;28;20043;-65
2023/07/28 08:52:02;;;;;;;0.50;0.50;;;20.00;99.90;;;;;;5112810;28;20593;-65
2023/07/28 08:54:28;;;;;;;1.40;0.63;;;19.60;99.90;;;;;;5112823;28;20043;-64
2023/07/28 08:56:53;;;;;;;1.42;0.82;;;19.90;99.90;;;;;;5112202;28;20079;-65
2023/07/28 08:59:27;;;;;;;0.50;0.50;;;20.00;99.90;;;;;;5112452;28;20086;-66
2023/07/28 09:01:55;;;;;;;0.10;0.10;;;20.00;99.90;;;;;;5112299;28;20053;-66
2023/07/28 09:04:21;;;;;;;0.75;0.75;;;19.80;99.90;;;;;;5111966;28;20059;-64
2023/07/28 09:06:49;;;;;;;0.30;0.30;;;20.10;99.90;;;;;;5112247;28;20652;-65
2023/07/28 09:09:16;;;;;;;1.33;1.15;;;19.50;99.90;;;;;;5112672;28;20046;-66
2023/07/28 09:11:49;;;;;;;0.50;0.50;;;19.70;99.90;;;;;;5111703;28;20046;-65
2023/07/28 09:14:16;;;;;;;0.57;0.43;;;19.90;99.90;;;;;;5112333;28;20399;-64
2023/07/28 09:16:46;;;;;;;0.65;0.50;;;19.90;99.90;;;;;;5112092;28;20387;-64
2023/07/28 09:19:12;;;;;;;0.63;0.60;;;19.70;99.90;;;;;;5112065;28;20126;-65
2023/07/28 09:21:39;;;;;;;1.35;1.25;;;20.00;99.90;;;;;;5112340;28;20139;-64
2023/07/28 09:24:06;;;;;;;0.22;0.22;;;20.00;99.90;;;;;;5112451;28;20100;-65
2023/07/28 09:26:45;;;;;;;0.35;0.35;;;20.00;99.90;;;;;;5111791;28;20047;-65
2023/07/28 09:29:19;;;;;;;0.98;0.85;;;20.00;99.90;;;;;;5112212;28;20560;-65
2023/07/28 09:31:46;;;;;;;0.17;0.17;;;20.20;99.90;;;;;;5112177;28;20043;-65
2023/07/28 09:34:13;;;;;;;1.17;0.70;;;20.30;99.90;;;;;;5111470;28;20120;-65
2023/07/28 09:36:39;;;;;;;1.40;0.93;;;20.40;99.90;;;;;;5112328;28;20126;-68
2023/07/28 09:39:09;;;;;;;0.50;0.50;;;20.40;99.90;;;;;;5112446;28;20047;-65
2023/07/28 09:41:37;;;;;;;0.10;0.10;;;20.20;99.90;;;;;;5111644;28;20130;-65
2023/07/28 09:44:05;;;;;;;0.90;0.82;;;22.20;99.90;;;;;;5112187;28;20051;-65
2023/07/28 09:46:33;;;;;;;1.23;0.65;;;20.40;99.90;;;;;;5112009;28;20046;-65
2023/07/28 09:49:03;;;;;;;0.28;0.28;;;20.10;99.90;;;;;;5111194;28;20573;-66
2023/07/28 09:51:31;;;;;;;0.52;0.38;;;20.10;99.90;;;;;;5111692;28;20069;-65
2023/07/28 09:54:27;;;;;;;1.08;0.77;;;19.90;99.90;;;;;;5111934;28;20049;-65
2023/07/28 09:56:59;;;;;;;0.77;0.77;;;19.70;99.90;;;;;;5108061;28;20134;-65
2023/07/28 09:59:39;;;;;;;1.48;0.73;;;20.00;99.90;;;;;;5111842;28;20116;-66
2023/07/28 10:02:05;;;;;;;0.38;0.38;;;19.60;99.90;;;;;;5111172;28;20047;-66
2023/07/28 10:04:32;;;;;;;0.63;0.45;;;20.40;99.90;;;;;;5111708;28;20063;-65
2023/07/28 10:06:59;;;;;;;1.55;0.38;;;20.20;99.90;;;;;;5110484;28;20051;-64
2023/07/28 10:09:27;;;;;;;0.40;0.40;;;20.30;99.90;;;;;;5111350;28;20051;-65
2023/07/28 10:11:54;;;;;;;1.23;0.95;;;20.90;99.90;;;;;;5111728;28;20047;-65
2023/07/28 10:14:59;;;;;;;2.90;0.75;;;20.60;99.90;;;;;;5111671;28;20047;-66
2023/07/28 10:17:34;;;;;;;0.57;0.57;;;20.50;99.90;;;;;;5104501;28;20091;-65
2023/07/28 10:20:08;;;;;;;1.00;0.57;;;20.90;99.90;;;;;;5111845;28;20051;-65
2023/07/28 10:22:45;;;;;;;0.20;0.10;;;21.40;99.90;;;;;;5111719;28;20112;-64
2023/07/28 10:25:11;;;;;;;0.28;0.28;;;21.20;99.90;;;;;;5110054;28;20521;-65
2023/07/28 10:27:43;;;;;;;0.47;0.47;;;21.40;99.90;;;;;;5111221;28;20048;-65
2023/07/28 10:30:13;;;;;;;0.52;0.50;;;22.00;99.90;;;;;;5111722;28;20145;-65
2023/07/28 10:32:42;;;;;;;0.40;0.40;;;21.80;99.90;;;;;;5111024;28;20153;-65
2023/07/28 10:35:17;;;;;;;0.57;0.52;;;21.70;99.90;;;;;;5111382;28;20507;-65
2023/07/28 10:37:48;;;;;;;0.82;0.82;;;21.30;99.90;;;;;;5111369;28;20047;-65
2023/07/28 10:40:34;;;;;;;0.65;0.65;;;21.10;99.90;;;;;;5111150;28;20147;-65
2023/07/28 10:43:01;;;;;;;0.88;0.85;;;20.80;99.90;;;;;;5110159;28;20043;-65
2023/07/28 10:45:29;;;;;;;0.30;0.30;;;21.00;99.90;;;;;;5111420;28;20047;-64
2023/07/28 10:47:56;;;;;;;0.55;0.52;;;21.50;99.90;;;;;;5110864;28;20073;-64
2023/07/28 10:50:23;;;;;;;0.73;0.73;;;21.50;99.90;;;;;;5111236;28;20052;-64
2023/07/28 10:52:49;;;;;;;0.38;0.38;;;21.50;99.90;;;;;;5111358;28;20126;-66
2023/07/28 10:55:17;;;;;;;0.22;0.22;;;21.50;99.90;;;;;;5110979;28;20051;-65
2023/07/28 10:57:44;;;;;;;0.20;0.20;;;21.80;99.90;;;;;;5111233;28;20040;-64
2023/07/28 11:00:12;;;;;;;1.50;1.30;;;22.00;99.90;;;;;;5111237;28;20091;-65
2023/07/28 11:02:45;;;;;;;1.13;0.75;;;21.90;99.90;;;;;;5111708;28;20468;-64
2023/07/28 11:05:12;;;;;;;0.77;0.77;;;22.40;99.90;;;;;;5114824;28;20063;-65
2023/07/28 11:07:43;;;;;;;0.22;0.22;;;22.00;99.90;;;;;;5113609;28;20128;-64
2023/07/28 11:10:11;;;;;;;0.55;0.55;;;22.00;99.90;;;;;;5114738;28;20167;-65
2023/07/28 11:12:49;;;;;;;0.45;0.45;;;22.10;99.90;;;;;;5115012;28;20092;-65
2023/07/28 11:15:16;;;;;;;0.38;0.38;;;22.00;99.90;;;;;;5115012;28;20521;-66
2023/07/28 11:17:47;;;;;;;0.60;0.60;;;22.30;99.90;;;;;;5114239;28;20122;-64
2023/07/28 11:20:31;;;;;;;0.77;0.73;;;21.80;99.90;;;;;;5115107;28;20047;-65
2023/07/28 11:22:59;;;;;;;0.28;0.28;;;22.20;99.90;;;;;;5114837;28;20048;-65
2023/07/28 11:25:27;;;;;;;0.28;0.28;;;22.50;99.90;;;;;;5114278;28;20150;-66
2023/07/28 11:27:53;;;;;;;0.35;0.35;;;23.10;99.90;;;;;;5114526;28;20388;-65
2023/07/28 11:30:19;;;;;;;3.00;1.95;;;23.30;99.90;;;;;;5115001;28;20112;-65
2023/07/28 11:32:48;;;;;;;0.80;0.60;;;22.90;99.90;;;;;;5114477;27;20090;-67
2023/07/28 11:35:16;;;;;;;0.22;0.22;;;22.90;99.90;;;;;;5115153;28;20048;-64
2023/07/28 11:37:43;;;;;;;0.30;0.22;;;22.80;99.90;;;;;;5115006;28;20044;-64
2023/07/28 11:40:14;;;;;;;0.28;0.28;;;23.00;99.90;;;;;;5114398;28;20052;-64
2023/07/28 11:42:52;;;;;;;0.30;0.30;;;23.20;99.90;;;;;;5114308;28;20070;-64
2023/07/28 11:45:18;;;;;;;0.43;0.43;;;22.90;99.90;;;;;;5114099;28;20508;-65
2023/07/28 11:47:56;;;;;;;0.03;0.03;;;23.10;99.90;;;;;;5113356;28;20058;-64
2023/07/28 11:50:27;;;;;;;0.65;0.65;;;23.10;99.90;;;;;;5114220;28;20086;-67
2023/07/28 11:52:54;;;;;;;0.30;0.30;;;23.10;99.90;;;;;;5113579;27;20047;-66
2023/07/28 11:55:21;;;;;;;0.30;0.30;;;23.00;99.90;;;;;;5114131;28;20058;-65
2023/07/28 11:57:48;;;;;;;0.15;0.15;;;22.90;99.90;;;;;;5113134;28;20063;-67
2023/07/28 12:00:16;;;;;;;0.40;0.40;;;23.10;99.90;;;;;;5113789;27;20184;-64
2023/07/28 12:02:43;;;;;;;0.38;0.38;;;22.70;99.90;;;;;;5114073;28;20051;-65
2023/07/28 12:05:15;;;;;;;0.55;0.35;;;23.10;99.90;;;;;;5114151;28;20055;-65
2023/07/28 12:07:47;;;;;;;0.30;0.28;;;23.40;99.90;;;;;;5113173;28;20490;-65
2023/07/28 12:10:13;;;;;;;0.50;0.50;;;23.40;99.90;;;;;;5114024;28;20518;-65
2023/07/28 12:12:45;;;;;;;0.45;0.28;;;24.00;99.90;;;;;;5113410;28;20616;-65
2023/07/28 12:15:21;;;;;;;0.52;0.52;;;23.60;99.90;;;;;;5113365;27;20051;-67
2023/07/28 12:18:05;;;;;;;;;;;23.70;99.90;;;;;;5114029;28;20054;-66
2023/07/28 12:20:46;;;;;;;0.05;0.05;;;23.60;99.90;;;;;;5113866;28;20013;-65
2023/07/28 12:23:16;;;;;;;1.65;0.43;;;24.00;99.90;;;;;;5112973;28;20404;-65
2023/07/28 12:25:42;;;;;;;0.20;0.10;;;23.80;99.90;;;;;;5112178;28;20094;-66
2023/07/28 12:28:08;;;;;;;0.32;0.32;;;24.10;99.90;;;;;;5113176;28;20083;-66
2023/07/28 12:30:35;;;;;;;0.10;0.10;;;24.00;99.90;;;;;;5112647;27;20082;-65
2023/07/28 12:33:01;;;;;;;0.43;0.43;;;24.00;99.90;;;;;;5113265;28;20055;-64
2023/07/28 12:35:31;;;;;;;0.20;0.20;;;23.70;99.90;;;;;;5111901;28;20487;-65
2023/07/28 12:38:07;;;;;;;0.20;0.20;;;23.90;99.90;;;;;;5112550;28;20088;-65
2023/07/28 12:40:34;;;;;;;0.45;0.38;;;24.10;99.90;;;;;;5113085;28;20392;-65
2023/07/28 12:43:01;;;;;;;0.20;0.20;;;23.90;99.90;;;;;;5112634;28;20048;-66
2023/07/28 12:45:27;;;;;;;0.30;0.30;;;23.50;99.90;;;;;;5112707;28;20053;-66
2023/07/28 12:47:53;;;;;;;0.20;0.20;;;23.80;99.90;;;;;;5112924;28;20039;-65
2023/07/28 12:50:20;;;;;;;0.43;0.40;;;24.10;99.90;;;;;;5112717;28;20429;-67